Time;durP1;ratioP1;P1;durP2;ratioP2;P2;SDS_P1;SDS_P2;PMS_P1;PMS_P2;Temp;Humidity;BMP_temperature;BMP_pressure;BME280_temperature;BME280_humidity;BME280_pressure;Samples;Min_cycle;Max_cycle;Signal;HPM_P1;HPM_P2
2024/02/09 00:00:07;;;;;;;9.97;2.40;;;;;;;;;;7327617;19;20395;-47
2024/02/09 00:02:40;;;;;;;4.13;2.67;;;;;;;;;;7347598;19;20413;-48
2024/02/09 00:05:13;;;;;;;8.10;3.13;;;;;;;;;;7326030;19;20406;-51
2024/02/09 00:07:45;;;;;;;6.63;3.00;;;;;;;;;;7325408;19;20400;-45
2024/02/09 00:10:18;;;;;;;5.90;2.57;;;;;;;;;;7348793;19;20398;-46
2024/02/09 00:12:47;;;;;;;5.93;2.43;;;;;;;;;;7326053;19;20432;-46
2024/02/09 00:15:18;;;;;;;6.10;3.00;;;;;;;;;;7346965;19;21252;-46
2024/02/09 00:17:48;;;;;;;5.50;2.23;;;;;;;;;;7326132;19;20391;-45
2024/02/09 00:20:20;;;;;;;4.60;2.30;;;;;;;;;;7348364;19;21289;-48
2024/02/09 00:22:50;;;;;;;3.57;2.13;;;;;;;;;;7325968;19;20394;-46
2024/02/09 00:25:20;;;;;;;6.53;2.60;;;;;;;;;;7347002;19;20394;-45
2024/02/09 00:27:49;;;;;;;7.87;3.60;;;;;;;;;;7324968;19;20219;-47
2024/02/09 00:30:18;;;;;;;4.67;3.07;;;;;;;;;;7347851;19;20993;-46
2024/02/09 00:32:51;;;;;;;9.03;3.53;;;;;;;;;;7324815;19;20966;-49
2024/02/09 00:35:24;;;;;;;6.23;3.30;;;;;;;;;;7347732;19;20421;-46
2024/02/09 00:38:02;;;;;;;4.20;2.50;;;;;;;;;;7325414;19;20392;-48
2024/02/09 00:40:33;;;;;;;15.27;6.93;;;;;;;;;;7348613;19;20421;-50
2024/02/09 00:43:03;;;;;;;10.40;4.70;;;;;;;;;;7325343;19;20419;-49
2024/02/09 00:45:33;;;;;;;5.23;3.37;;;;;;;;;;7345518;19;20498;-50
2024/02/09 00:48:04;;;;;;;16.40;5.90;;;;;;;;;;7324259;19;20402;-48
2024/02/09 00:50:36;;;;;;;8.60;4.37;;;;;;;;;;7348082;19;20410;-46
2024/02/09 00:53:10;;;;;;;6.78;4.10;;;;;;;;;;7326083;19;20441;-51
2024/02/09 00:55:40;;;;;;;6.70;4.50;;;;;;;;;;7340593;19;20212;-46
2024/02/09 00:58:11;;;;;;;9.70;4.32;;;;;;;;;;7346887;19;20402;-48
2024/02/09 01:00:42;;;;;;;10.35;4.97;;;;;;;;;;7329106;19;20197;-45
2024/02/09 01:03:12;;;;;;;23.23;9.15;;;;;;;;;;7346061;19;20194;-50
2024/02/09 01:05:46;;;;;;;9.43;5.07;;;;;;;;;;7325040;19;20209;-47
2024/02/09 01:08:15;;;;;;;7.20;3.80;;;;;;;;;;7346925;19;20385;-48
2024/02/09 01:10:46;;;;;;;21.10;7.17;;;;;;;;;;7323973;19;20950;-48
2024/02/09 02:45:11;;;;;;;6.38;3.55;;;;;;;;;;7322302;19;20209;-50
2024/02/09 03:04:17;;;;;;;8.43;3.60;;;;;;;;;;7321689;19;20608;-52
2024/02/09 03:04:22;;;;;;;8.20;3.60;;;;;;;;;;7321117;19;20255;-49
2024/02/09 03:06:52;;;;;;;10.20;4.70;;;;;;;;;;7320610;19;20669;-50
2024/02/09 03:09:41;;;;;;;7.72;4.32;;;;;;;;;;7323556;19;20424;-47
2024/02/09 03:12:13;;;;;;;7.03;3.50;;;;;;;;;;7342886;19;20223;-47
2024/02/09 03:14:46;;;;;;;7.10;3.37;;;;;;;;;;7319741;19;20569;-48
2024/02/09 03:17:15;;;;;;;7.63;3.83;;;;;;;;;;7342613;19;20476;-48
2024/02/09 03:19:45;;;;;;;7.28;4.07;;;;;;;;;;7321186;19;20201;-50
2024/02/09 03:22:14;;;;;;;7.00;3.65;;;;;;;;;;7343598;19;20218;-48
2024/02/09 03:24:44;;;;;;;6.55;3.72;;;;;;;;;;7319178;19;20614;-48
2024/02/09 03:27:13;;;;;;;10.32;4.95;;;;;;;;;;7343244;19;20670;-47
2024/02/09 03:29:45;;;;;;;7.13;3.97;;;;;;;;;;7326422;19;20267;-48
2024/02/09 03:32:15;;;;;;;8.23;4.45;;;;;;;;;;7348878;19;20196;-50
2024/02/09 03:34:47;;;;;;;14.68;5.85;;;;;;;;;;7325705;19;20204;-50
2024/02/09 03:37:16;;;;;;;13.00;4.85;;;;;;;;;;7349093;19;20648;-49
2024/02/09 03:39:46;;;;;;;6.82;3.65;;;;;;;;;;7326982;19;20194;-48
2024/02/09 03:42:15;;;;;;;11.80;5.35;;;;;;;;;;7350352;19;20212;-47
2024/02/09 03:44:48;;;;;;;14.75;6.38;;;;;;;;;;7325453;19;20222;-48
2024/02/09 03:47:19;;;;;;;10.98;4.18;;;;;;;;;;7349587;19;20677;-50
2024/02/09 03:49:51;;;;;;;9.73;4.10;;;;;;;;;;7326162;19;20284;-46
2024/02/09 03:52:21;;;;;;;9.05;4.25;;;;;;;;;;7348257;19;20648;-47
2024/02/09 03:54:51;;;;;;;6.95;4.00;;;;;;;;;;7325967;19;20239;-46
2024/02/09 03:57:21;;;;;;;13.00;6.73;;;;;;;;;;7348571;19;20205;-50
2024/02/09 03:59:53;;;;;;;8.88;3.50;;;;;;;;;;7326292;19;20398;-48
2024/02/09 04:02:23;;;;;;;9.10;4.57;;;;;;;;;;7348243;19;20200;-48
2024/02/09 04:04:52;;;;;;;9.00;4.53;;;;;;;;;;7324401;19;20680;-47
2024/02/09 04:07:22;;;;;;;6.82;3.63;;;;;;;;;;7348587;19;20521;-48
2024/02/09 04:09:52;;;;;;;8.30;3.88;;;;;;;;;;7326093;19;20198;-50
2024/02/09 04:12:42;;;;;;;5.85;3.45;;;;;;;;;;7334485;19;20194;-48
2024/02/09 04:15:14;;;;;;;7.75;4.13;;;;;;;;;;7347739;19;20226;-48
2024/02/09 04:17:48;;;;;;;7.55;3.85;;;;;;;;;;7325875;19;20722;-47
2024/02/09 04:20:18;;;;;;;6.78;4.05;;;;;;;;;;7349035;19;20192;-49
2024/02/09 04:22:50;;;;;;;7.85;4.15;;;;;;;;;;7325291;19;20206;-50
2024/02/09 04:25:20;;;;;;;9.13;4.20;;;;;;;;;;7347664;19;20201;-49
2024/02/09 04:27:51;;;;;;;6.65;3.85;;;;;;;;;;7325274;19;20205;-46
2024/02/09 04:30:23;;;;;;;8.00;4.65;;;;;;;;;;7347426;19;20224;-48
2024/02/09 04:32:53;;;;;;;6.30;4.05;;;;;;;;;;7325211;19;20197;-47
2024/02/09 04:35:24;;;;;;;7.32;4.25;;;;;;;;;;7346607;19;20229;-47
2024/02/09 04:37:54;;;;;;;8.40;4.40;;;;;;;;;;7325353;19;20205;-47
2024/02/09 04:40:25;;;;;;;16.20;5.38;;;;;;;;;;7345232;19;20196;-49
2024/02/09 04:42:54;;;;;;;9.63;5.38;;;;;;;;;;7324651;19;20193;-48
2024/02/09 04:45:28;;;;;;;8.98;4.18;;;;;;;;;;7347285;19;20317;-48
2024/02/09 04:47:57;;;;;;;8.85;4.60;;;;;;;;;;7324896;19;20201;-50
2024/02/09 04:50:27;;;;;;;10.85;4.25;;;;;;;;;;7346814;19;20216;-48
2024/02/09 04:52:57;;;;;;;11.35;5.15;;;;;;;;;;7323834;19;20244;-48
2024/02/09 04:55:27;;;;;;;5.85;3.28;;;;;;;;;;7346264;19;20209;-49
2024/02/09 04:57:57;;;;;;;8.15;3.95;;;;;;;;;;7324689;19;20193;-49
2024/02/09 05:00:29;;;;;;;7.68;4.05;;;;;;;;;;7346620;19;20201;-48
2024/02/09 05:02:58;;;;;;;8.13;4.13;;;;;;;;;;7322980;19;20193;-48
2024/02/09 05:05:30;;;;;;;10.93;3.60;;;;;;;;;;7345535;19;20276;-53
2024/02/09 05:08:00;;;;;;;7.28;3.63;;;;;;;;;;7324383;19;20206;-52
2024/02/09 05:10:29;;;;;;;5.88;3.58;;;;;;;;;;7346272;19;20201;-48
2024/02/09 05:13:02;;;;;;;5.53;3.30;;;;;;;;;;7324284;19;20202;-49
2024/02/09 05:15:35;;;;;;;7.50;3.63;;;;;;;;;;7347178;19;20688;-48
2024/02/09 05:18:05;;;;;;;9.00;3.55;;;;;;;;;;7324445;19;20886;-47
2024/02/09 05:20:34;;;;;;;6.70;4.17;;;;;;;;;;7346822;19;20212;-49
2024/02/09 05:23:04;;;;;;;5.55;3.00;;;;;;;;;;7323506;19;20415;-46
2024/02/09 05:25:33;;;;;;;7.97;3.40;;;;;;;;;;7345799;19;20265;-48
2024/02/09 05:28:04;;;;;;;5.50;3.25;;;;;;;;;;7324336;19;20326;-48
2024/02/09 05:30:36;;;;;;;7.28;3.90;;;;;;;;;;7346495;19;20201;-49
2024/02/09 05:33:06;;;;;;;3.72;2.75;;;;;;;;;;7325161;19;20194;-48
2024/02/09 05:35:36;;;;;;;7.28;4.25;;;;;;;;;;7345415;19;20216;-49
2024/02/09 05:38:05;;;;;;;7.03;3.80;;;;;;;;;;7324826;19;20982;-48
2024/02/09 05:40:34;;;;;;;4.55;3.08;;;;;;;;;;7345905;19;20704;-47
2024/02/09 05:43:04;;;;;;;5.38;3.40;;;;;;;;;;7323680;19;20201;-47
2024/02/09 05:45:34;;;;;;;11.18;2.85;;;;;;;;;;7344724;19;20636;-48
2024/02/09 05:48:08;;;;;;;5.15;2.92;;;;;;;;;;7323195;19;20646;-49
2024/02/09 05:50:38;;;;;;;6.43;3.08;;;;;;;;;;7344806;19;20216;-48
2024/02/09 05:53:09;;;;;;;4.20;2.83;;;;;;;;;;7323860;19;20201;-49
2024/02/09 05:55:40;;;;;;;7.57;4.15;;;;;;;;;;7344569;19;20213;-49
2024/02/09 05:58:10;;;;;;;4.72;3.05;;;;;;;;;;7324127;19;20257;-48
2024/02/09 06:00:39;;;;;;;6.32;3.90;;;;;;;;;;7345379;19;20748;-50
2024/02/09 06:03:12;;;;;;;4.35;3.00;;;;;;;;;;7323750;19;20695;-50
2024/02/09 06:05:42;;;;;;;5.68;3.25;;;;;;;;;;7322398;19;20209;-49
2024/02/09 06:08:12;;;;;;;7.15;3.80;;;;;;;;;;7345119;19;20202;-49
2024/02/09 06:10:41;;;;;;;7.73;3.60;;;;;;;;;;7327892;19;20204;-50
2024/02/09 06:13:11;;;;;;;6.18;3.55;;;;;;;;;;7344326;19;20407;-48
2024/02/09 06:15:41;;;;;;;6.80;3.63;;;;;;;;;;7337023;19;20213;-50
2024/02/09 06:18:13;;;;;;;7.20;3.70;;;;;;;;;;7344525;19;20201;-49
2024/02/09 06:20:42;;;;;;;6.00;3.57;;;;;;;;;;7322672;19;20197;-48
2024/02/09 06:23:11;;;;;;;5.78;3.38;;;;;;;;;;7343860;19;20426;-48
2024/02/09 06:25:41;;;;;;;5.03;3.10;;;;;;;;;;7332495;19;20316;-52
2024/02/09 06:28:10;;;;;;;4.30;2.90;;;;;;;;;;7346526;19;20213;-52
2024/02/09 06:30:40;;;;;;;6.55;3.20;;;;;;;;;;7344979;19;20437;-50
2024/02/09 06:33:09;;;;;;;5.93;3.50;;;;;;;;;;7322617;19;20218;-51
2024/02/09 06:35:42;;;;;;;6.55;3.63;;;;;;;;;;7343530;19;20824;-50
2024/02/09 06:38:11;;;;;;;7.20;3.08;;;;;;;;;;7322834;19;20626;-50
2024/02/09 06:40:41;;;;;;;6.03;3.65;;;;;;;;;;7337175;19;20190;-50
2024/02/09 06:43:10;;;;;;;5.57;3.38;;;;;;;;;;7344225;19;20196;-47
2024/02/09 06:45:40;;;;;;;6.75;3.83;;;;;;;;;;7342632;19;20212;-50
2024/02/09 06:48:10;;;;;;;5.90;3.47;;;;;;;;;;7323356;19;20203;-50
2024/02/09 06:50:44;;;;;;;6.80;3.83;;;;;;;;;;7344068;19;20435;-51
2024/02/09 06:53:15;;;;;;;6.63;3.50;;;;;;;;;;7320935;19;20205;-52
2024/02/09 06:55:45;;;;;;;11.75;6.18;;;;;;;;;;7320637;19;20209;-51
2024/02/09 06:58:17;;;;;;;6.77;4.50;;;;;;;;;;7343279;19;20194;-48
2024/02/09 07:00:48;;;;;;;7.10;4.60;;;;;;;;;;7320308;19;20485;-50
2024/02/09 07:03:17;;;;;;;7.30;3.85;;;;;;;;;;7347059;19;20197;-49
2024/02/09 07:05:51;;;;;;;7.63;4.00;;;;;;;;;;7326902;19;20263;-48
2024/02/09 07:08:30;;;;;;;7.93;4.32;;;;;;;;;;7351227;19;20196;-49
2024/02/09 07:11:01;;;;;;;9.80;4.00;;;;;;;;;;7328402;19;20213;-48
2024/02/09 07:13:30;;;;;;;7.03;4.28;;;;;;;;;;7349211;19;20495;-49
2024/02/09 07:16:02;;;;;;;6.93;3.60;;;;;;;;;;7328601;19;20231;-53
2024/02/09 07:18:33;;;;;;;8.88;4.10;;;;;;;;;;7350108;19;20201;-47
2024/02/09 07:21:05;;;;;;;8.15;3.97;;;;;;;;;;7328159;19;21616;-50
2024/02/09 07:23:35;;;;;;;8.85;3.90;;;;;;;;;;7348842;19;20262;-49
2024/02/09 07:26:04;;;;;;;7.15;4.18;;;;;;;;;;7327071;19;20273;-48
2024/02/09 07:28:34;;;;;;;8.43;4.28;;;;;;;;;;7349738;19;20201;-47
2024/02/09 07:31:03;;;;;;;5.57;3.90;;;;;;;;;;7325316;19;20909;-50
2024/02/09 07:33:33;;;;;;;7.65;4.93;;;;;;;;;;7348777;19;20201;-49
2024/02/09 07:36:06;;;;;;;9.80;4.45;;;;;;;;;;7327157;19;20243;-51
2024/02/09 07:38:37;;;;;;;7.05;4.25;;;;;;;;;;7349585;19;20200;-51
2024/02/09 07:41:06;;;;;;;10.50;4.38;;;;;;;;;;7328628;19;20227;-52
2024/02/09 07:43:36;;;;;;;7.85;3.90;;;;;;;;;;7348676;19;20194;-49
2024/02/09 07:46:06;;;;;;;7.60;4.22;;;;;;;;;;7327668;19;20545;-47
2024/02/09 07:48:35;;;;;;;6.32;3.85;;;;;;;;;;7348908;19;20216;-47
2024/02/09 07:51:08;;;;;;;6.22;3.70;;;;;;;;;;7328240;19;20197;-48
2024/02/09 07:53:40;;;;;;;6.88;4.20;;;;;;;;;;7346553;19;20264;-48
2024/02/09 07:56:09;;;;;;;6.85;3.42;;;;;;;;;;7327789;19;20276;-48
2024/02/09 07:58:39;;;;;;;7.75;3.72;;;;;;;;;;7348674;19;20276;-51
2024/02/09 08:01:08;;;;;;;5.75;3.88;;;;;;;;;;7326979;19;20219;-52
2024/02/09 08:03:38;;;;;;;6.25;4.05;;;;;;;;;;7346179;19;20201;-48
2024/02/09 08:06:10;;;;;;;10.18;4.85;;;;;;;;;;7327761;19;20210;-48
2024/02/09 08:08:39;;;;;;;7.00;3.70;;;;;;;;;;7347592;19;20193;-50
2024/02/09 08:11:09;;;;;;;8.15;4.45;;;;;;;;;;7328259;19;20255;-54
2024/02/09 08:13:39;;;;;;;10.18;3.58;;;;;;;;;;7346541;19;20236;-48
2024/02/09 08:16:09;;;;;;;6.72;3.75;;;;;;;;;;7326767;19;20228;-53
2024/02/09 08:18:38;;;;;;;6.20;3.50;;;;;;;;;;7348426;19;20218;-49
2024/02/09 08:21:10;;;;;;;6.43;3.30;;;;;;;;;;7327329;19;20202;-48
2024/02/09 08:23:40;;;;;;;5.63;3.30;;;;;;;;;;7347204;19;21004;-48
2024/02/09 08:26:10;;;;;;;7.80;4.40;;;;;;;;;;7328604;19;20209;-50
2024/02/09 08:28:43;;;;;;;9.50;4.20;;;;;;;;;;7343442;19;20573;-48
2024/02/09 08:31:13;;;;;;;5.43;3.08;;;;;;;;;;7327398;19;20297;-48
2024/02/09 08:33:43;;;;;;;6.63;3.37;;;;;;;;;;7323595;19;20204;-50
2024/02/09 08:36:17;;;;;;;8.32;3.75;;;;;;;;;;7347238;19;20386;-49
2024/02/09 08:38:46;;;;;;;6.82;3.63;;;;;;;;;;7325368;19;20199;-48
2024/02/09 08:41:18;;;;;;;5.55;3.63;;;;;;;;;;7347630;19;20205;-51
2024/02/09 08:43:47;;;;;;;7.30;3.80;;;;;;;;;;7324106;19;20277;-50
2024/02/09 08:46:17;;;;;;;11.80;4.20;;;;;;;;;;7346541;19;20483;-50
2024/02/09 08:48:46;;;;;;;7.38;3.60;;;;;;;;;;7324468;19;20423;-48
2024/02/09 08:51:19;;;;;;;8.05;4.00;;;;;;;;;;7347222;19;20607;-47
2024/02/09 08:53:48;;;;;;;6.90;3.22;;;;;;;;;;7321537;19;20208;-47
2024/02/09 08:56:17;;;;;;;5.00;3.43;;;;;;;;;;7347057;19;20225;-49
2024/02/09 08:58:47;;;;;;;5.83;3.77;;;;;;;;;;7324389;19;20440;-49
2024/02/09 09:01:17;;;;;;;5.50;3.58;;;;;;;;;;7347862;19;20416;-48
2024/02/09 09:03:55;;;;;;;5.60;3.40;;;;;;;;;;7322466;19;20578;-48
2024/02/09 09:06:32;;;;;;;6.78;3.20;;;;;;;;;;7349551;19;20489;-49
2024/02/09 09:09:02;;;;;;;7.32;3.00;;;;;;;;;;7325430;19;20192;-49
2024/02/09 09:11:32;;;;;;;6.03;3.43;;;;;;;;;;7345098;19;20321;-48
2024/02/09 09:14:01;;;;;;;4.75;3.00;;;;;;;;;;7322715;19;20391;-49
2024/02/09 09:16:31;;;;;;;5.80;2.83;;;;;;;;;;7346872;19;20555;-48
2024/02/09 09:19:05;;;;;;;5.70;3.27;;;;;;;;;;7324087;19;20265;-47
2024/02/09 09:21:37;;;;;;;3.00;2.50;;;;;;;;;;7346933;19;20384;-47
2024/02/09 09:24:07;;;;;;;5.32;3.08;;;;;;;;;;7324540;19;20266;-49
2024/02/09 09:26:36;;;;;;;8.07;3.80;;;;;;;;;;7344677;19;20209;-49
2024/02/09 09:29:06;;;;;;;10.00;2.87;;;;;;;;;;7324446;19;20198;-48
2024/02/09 09:31:35;;;;;;;6.73;2.90;;;;;;;;;;7346688;19;21071;-47
2024/02/09 09:34:05;;;;;;;5.97;3.40;;;;;;;;;;7321834;19;20458;-47
2024/02/09 09:36:34;;;;;;;6.10;3.37;;;;;;;;;;7345534;19;20393;-47
2024/02/09 09:39:06;;;;;;;5.38;3.03;;;;;;;;;;7323012;19;20817;-48
2024/02/09 09:41:40;;;;;;;8.67;2.63;;;;;;;;;;7345088;19;20198;-48
2024/02/09 09:44:10;;;;;;;6.28;3.55;;;;;;;;;;7323816;19;20402;-51
2024/02/09 09:46:41;;;;;;;5.23;2.90;;;;;;;;;;7344642;19;20205;-51
2024/02/09 09:49:12;;;;;;;3.80;2.60;;;;;;;;;;7324494;19;20387;-51
2024/02/09 09:51:44;;;;;;;4.17;2.80;;;;;;;;;;7327249;19;20409;-57
2024/02/09 09:54:18;;;;;;;5.40;2.77;;;;;;;;;;7344691;19;20391;-47
2024/02/09 09:56:47;;;;;;;4.60;2.20;;;;;;;;;;7321786;19;20413;-47
2024/02/09 09:59:17;;;;;;;3.23;2.13;;;;;;;;;;7343460;19;20447;-50
2024/02/09 10:01:48;;;;;;;5.10;2.87;;;;;;;;;;7319593;19;20437;-48
2024/02/09 10:04:19;;;;;;;5.10;2.70;;;;;;;;;;7345579;19;20417;-48
2024/02/09 10:06:49;;;;;;;10.70;5.60;;;;;;;;;;7321799;19;21009;-49
2024/02/09 10:09:21;;;;;;;27.87;11.30;;;;;;;;;;7345064;19;20412;-46
2024/02/09 10:11:51;;;;;;;7.77;3.20;;;;;;;;;;7323371;19;20432;-49
2024/02/09 10:14:23;;;;;;;8.13;3.55;;;;;;;;;;7343309;19;20427;-47
2024/02/09 10:16:53;;;;;;;4.57;2.43;;;;;;;;;;7321775;19;20216;-47
2024/02/09 10:19:22;;;;;;;6.53;3.30;;;;;;;;;;7342672;19;20427;-50
2024/02/09 10:21:52;;;;;;;5.60;3.33;;;;;;;;;;7324009;19;20507;-50
2024/02/09 10:24:30;;;;;;;3.63;2.33;;;;;;;;;;7344117;19;20774;-47
2024/02/09 10:26:59;;;;;;;3.93;2.33;;;;;;;;;;7323408;19;20449;-48
2024/02/09 10:29:29;;;;;;;9.07;3.67;;;;;;;;;;7344136;19;20398;-52
2024/02/09 10:31:58;;;;;;;5.03;2.10;;;;;;;;;;7321548;19;20442;-49
2024/02/09 10:34:27;;;;;;;3.80;2.37;;;;;;;;;;7343526;19;20402;-46
2024/02/09 10:36:58;;;;;;;22.10;8.50;;;;;;;;;;7318593;19;20403;-49
2024/02/09 10:39:30;;;;;;;5.30;2.47;;;;;;;;;;7345376;19;20455;-48
2024/02/09 10:42:02;;;;;;;3.73;2.27;;;;;;;;;;7322057;19;20421;-48
2024/02/09 10:44:34;;;;;;;2.93;1.93;;;;;;;;;;7342748;19;20406;-49
2024/02/09 10:47:04;;;;;;;7.10;3.07;;;;;;;;;;7321028;19;20414;-53
2024/02/09 10:49:36;;;;;;;3.80;2.50;;;;;;;;;;7343280;19;20397;-52
2024/02/09 10:52:06;;;;;;;9.30;2.30;;;;;;;;;;7320888;19;20777;-50
2024/02/09 10:54:40;;;;;;;2.93;2.00;;;;;;;;;;7343708;19;20458;-48
2024/02/09 10:57:10;;;;;;;2.83;1.80;;;;;;;;;;7322760;19;20391;-52
2024/02/09 10:59:41;;;;;;;3.30;1.93;;;;;;;;;;7344523;19;20409;-52
2024/02/09 11:02:11;;;;;;;5.78;2.55;;;;;;;;;;7321416;19;20394;-49
2024/02/09 11:04:41;;;;;;;2.07;1.70;;;;;;;;;;7340866;19;20198;-50
2024/02/09 11:07:15;;;;;;;6.70;2.50;;;;;;;;;;7322331;19;20462;-50
2024/02/09 11:09:48;;;;;;;3.27;1.80;;;;;;;;;;7319896;19;20402;-50
2024/02/09 11:12:19;;;;;;;2.53;2.03;;;;;;;;;;7342845;19;20456;-47
2024/02/09 11:14:49;;;;;;;3.13;1.80;;;;;;;;;;7311158;19;20530;-40
2024/02/09 11:17:19;;;;;;;3.73;1.90;;;;;;;;;;7338249;19;20479;-41
2024/02/09 11:19:48;;;;;;;4.03;2.40;;;;;;;;;;7317318;19;20462;-39
2024/02/09 11:22:18;;;;;;;2.80;2.10;;;;;;;;;;7343684;19;20426;-44
2024/02/09 11:24:51;;;;;;;2.00;1.30;;;;;;;;;;7318305;19;20439;-42
2024/02/09 11:27:21;;;;;;;4.13;2.20;;;;;;;;;;7342189;19;20498;-44
2024/02/09 11:29:51;;;;;;;3.37;2.20;;;;;;;;;;7320437;19;20486;-41
2024/02/09 11:32:21;;;;;;;4.13;1.93;;;;;;;;;;7342397;19;20420;-40
2024/02/09 11:34:50;;;;;;;4.27;2.43;;;;;;;;;;7318403;19;20505;-42
2024/02/09 11:37:20;;;;;;;4.17;2.00;;;;;;;;;;7341142;19;20414;-40
2024/02/09 11:39:53;;;;;;;2.90;1.90;;;;;;;;;;7317081;19;21136;-41
2024/02/09 11:42:23;;;;;;;4.57;2.40;;;;;;;;;;7343196;19;20402;-46
2024/02/09 11:45:03;;;;;;;2.80;2.30;;;;;;;;;;7317731;19;20413;-40
2024/02/09 11:47:33;;;;;;;4.63;2.57;;;;;;;;;;7345257;19;20427;-44
2024/02/09 11:50:03;;;;;;;3.37;2.37;;;;;;;;;;7326213;19;20379;-43
2024/02/09 11:52:33;;;;;;;2.43;1.60;;;;;;;;;;7347213;19;20411;-42
2024/02/09 11:55:05;;;;;;;3.93;2.13;;;;;;;;;;7324304;19;20415;-41
2024/02/09 11:57:36;;;;;;;4.03;1.93;;;;;;;;;;7348654;19;20743;-43
2024/02/09 12:00:07;;;;;;;2.97;1.30;;;;;;;;;;7326567;19;20394;-43
2024/02/09 12:02:36;;;;;;;3.13;2.20;;;;;;;;;;7348565;19;20421;-42
2024/02/09 12:05:07;;;;;;;2.90;1.90;;;;;;;;;;7326346;19;20398;-44
2024/02/09 12:07:37;;;;;;;5.87;2.77;;;;;;;;;;7348852;19;20399;-42
2024/02/09 12:10:10;;;;;;;2.07;1.30;;;;;;;;;;7328314;19;20771;-41
2024/02/09 12:12:39;;;;;;;2.90;2.00;;;;;;;;;;7348123;19;20394;-46
2024/02/09 12:15:09;;;;;;;5.17;1.40;;;;;;;;;;7324853;19;20398;-41
2024/02/09 12:17:39;;;;;;;2.73;1.83;;;;;;;;;;7348568;19;20406;-44
2024/02/09 12:20:10;;;;;;;2.43;1.87;;;;;;;;;;7326883;19;20828;-42
2024/02/09 12:22:39;;;;;;;4.87;2.27;;;;;;;;;;7347960;19;20937;-40
2024/02/09 12:25:13;;;;;;;3.40;1.67;;;;;;;;;;7326231;19;20451;-41
2024/02/09 12:27:42;;;;;;;2.13;1.27;;;;;;;;;;7325703;19;20434;-43
2024/02/09 12:30:12;;;;;;;4.07;1.53;;;;;;;;;;7346879;19;20403;-41
2024/02/09 12:32:43;;;;;;;13.70;5.40;;;;;;;;;;7334759;19;20403;-40
2024/02/09 12:35:14;;;;;;;2.67;1.60;;;;;;;;;;7346036;19;20406;-48
2024/02/09 12:37:44;;;;;;;3.00;2.00;;;;;;;;;;7325000;19;20756;-42
2024/02/09 12:40:19;;;;;;;5.00;2.23;;;;;;;;;;7348070;19;20399;-44
2024/02/09 12:42:49;;;;;;;3.47;2.07;;;;;;;;;;7322363;19;20438;-41
2024/02/09 12:45:19;;;;;;;8.90;3.20;;;;;;;;;;7346085;19;20390;-44
2024/02/09 12:47:49;;;;;;;3.47;2.30;;;;;;;;;;7325237;19;20417;-41
2024/02/09 12:50:20;;;;;;;4.30;2.40;;;;;;;;;;7346265;19;20404;-45
2024/02/09 12:52:51;;;;;;;6.37;1.80;;;;;;;;;;7323140;19;20407;-41
2024/02/09 12:55:23;;;;;;;2.80;1.60;;;;;;;;;;7344269;19;20402;-47
2024/02/09 12:57:56;;;;;;;3.03;2.33;;;;;;;;;;7322858;19;20428;-40
2024/02/09 13:00:26;;;;;;;5.40;2.50;;;;;;;;;;7344908;19;20933;-46
2024/02/09 13:02:55;;;;;;;3.87;2.00;;;;;;;;;;7324664;19;20432;-42
2024/02/09 13:05:25;;;;;;;2.03;1.33;;;;;;;;;;7346300;19;20385;-46
2024/02/09 13:07:57;;;;;;;2.10;1.40;;;;;;;;;;7323365;19;20410;-42
2024/02/09 13:10:30;;;;;;;3.30;1.90;;;;;;;;;;7346968;19;20414;-44
2024/02/09 13:13:05;;;;;;;3.20;1.97;;;;;;;;;;7323407;19;20393;-44
2024/02/09 13:15:35;;;;;;;3.40;1.53;;;;;;;;;;7343852;19;20794;-46
2024/02/09 13:18:08;;;;;;;1.70;1.30;;;;;;;;;;7323947;19;20470;-45
2024/02/09 13:20:38;;;;;;;2.33;1.90;;;;;;;;;;7346978;19;20399;-43
2024/02/09 13:23:07;;;;;;;3.47;2.00;;;;;;;;;;7325800;19;20387;-44
2024/02/09 13:25:40;;;;;;;2.80;1.67;;;;;;;;;;7344511;19;20403;-44
2024/02/09 13:28:10;;;;;;;1.90;1.60;;;;;;;;;;7324931;19;20430;-40
2024/02/09 13:30:39;;;;;;;4.00;2.50;;;;;;;;;;7345985;19;20418;-42
2024/02/09 13:33:09;;;;;;;2.30;1.47;;;;;;;;;;7324082;19;20419;-45
2024/02/09 13:35:40;;;;;;;4.63;2.70;;;;;;;;;;7344679;19;20491;-43
2024/02/09 13:38:09;;;;;;;2.27;1.70;;;;;;;;;;7324674;19;20977;-44
2024/02/09 13:40:42;;;;;;;5.90;2.70;;;;;;;;;;7347343;19;20914;-42
2024/02/09 13:43:12;;;;;;;3.40;1.93;;;;;;;;;;7323467;19;20953;-41
2024/02/09 13:45:42;;;;;;;5.77;3.20;;;;;;;;;;7336257;19;20431;-43
2024/02/09 13:48:11;;;;;;;12.50;5.03;;;;;;;;;;7345948;19;20486;-45
2024/02/09 13:50:42;;;;;;;2.00;1.70;;;;;;;;;;7342582;19;20427;-40
2024/02/09 13:53:11;;;;;;;2.17;1.67;;;;;;;;;;7343609;19;20518;-48
2024/02/09 13:55:43;;;;;;;2.20;1.50;;;;;;;;;;7342100;19;20512;-40
2024/02/09 13:58:14;;;;;;;4.07;2.10;;;;;;;;;;7345256;19;20424;-46
2024/02/09 14:00:44;;;;;;;3.10;1.60;;;;;;;;;;7323016;19;20426;-41
2024/02/09 14:03:13;;;;;;;2.47;2.10;;;;;;;;;;7345068;19;20515;-44
2024/02/09 14:05:42;;;;;;;6.97;2.37;;;;;;;;;;7323061;19;20438;-48
2024/02/09 14:08:20;;;;;;;4.23;2.23;;;;;;;;;;7343890;19;20510;-47
2024/02/09 14:10:52;;;;;;;3.57;2.20;;;;;;;;;;7303654;19;21333;-41
2024/02/09 14:13:21;;;;;;;3.17;2.00;;;;;;;;;;7344417;19;20407;-42
2024/02/09 14:15:51;;;;;;;3.77;1.90;;;;;;;;;;7321489;19;20414;-42
2024/02/09 14:18:24;;;;;;;2.80;1.60;;;;;;;;;;7343197;19;20431;-48
2024/02/09 14:20:53;;;;;;;2.70;1.73;;;;;;;;;;7322776;19;20430;-42
2024/02/09 14:23:23;;;;;;;4.07;2.53;;;;;;;;;;7343081;19;20440;-44
2024/02/09 14:25:56;;;;;;;3.03;1.90;;;;;;;;;;7321034;19;20493;-44
2024/02/09 14:28:26;;;;;;;4.13;3.00;;;;;;;;;;7345095;19;20964;-49
2024/02/09 14:30:56;;;;;;;4.33;2.13;;;;;;;;;;7322626;19;20426;-43
2024/02/09 14:33:25;;;;;;;2.43;1.80;;;;;;;;;;7343800;19;20456;-43
2024/02/09 14:35:55;;;;;;;4.33;2.57;;;;;;;;;;7321230;19;20415;-49
2024/02/09 14:38:24;;;;;;;3.73;2.00;;;;;;;;;;7343807;19;20510;-48
2024/02/09 14:41:01;;;;;;;3.73;2.17;;;;;;;;;;7323056;19;20902;-43
2024/02/09 14:43:33;;;;;;;2.00;1.57;;;;;;;;;;7343377;19;21091;-42
2024/02/09 14:46:02;;;;;;;5.43;2.90;;;;;;;;;;7321372;19;20396;-49
2024/02/09 14:48:32;;;;;;;3.30;2.57;;;;;;;;;;7343045;19;20797;-50
2024/02/09 14:51:03;;;;;;;4.63;3.17;;;;;;;;;;7322477;19;20938;-41
2024/02/09 14:53:35;;;;;;;2.90;2.43;;;;;;;;;;7343317;19;20889;-41
2024/02/09 14:56:10;;;;;;;4.43;2.43;;;;;;;;;;7322508;19;20437;-43
2024/02/09 14:58:39;;;;;;;4.77;3.23;;;;;;;;;;7343163;19;20454;-44
2024/02/09 15:01:09;;;;;;;4.77;3.23;;;;;;;;;;7322116;19;20417;-45
2024/02/09 15:03:39;;;;;;;4.30;2.67;;;;;;;;;;7344568;19;20409;-47
2024/02/09 15:06:10;;;;;;;5.00;2.17;;;;;;;;;;7317156;19;20498;-44
2024/02/09 15:08:48;;;;;;;4.73;2.70;;;;;;;;;;7320256;19;20423;-42
2024/02/09 15:11:24;;;;;;;7.20;3.50;;;;;;;;;;7344967;19;20955;-40
2024/02/09 15:13:58;;;;;;;8.73;4.37;;;;;;;;;;7319833;19;20457;-42
2024/02/09 15:16:27;;;;;;;4.57;3.07;;;;;;;;;;7342299;19;20798;-43
2024/02/09 15:18:57;;;;;;;5.80;3.10;;;;;;;;;;7319216;19;20970;-43
2024/02/09 15:21:26;;;;;;;4.93;2.80;;;;;;;;;;7345084;19;20838;-50
2024/02/09 15:23:56;;;;;;;9.50;4.80;;;;;;;;;;7322918;19;20410;-44
2024/02/09 15:26:28;;;;;;;6.67;3.90;;;;;;;;;;7348937;19;20449;-41
2024/02/09 15:28:58;;;;;;;70.07;26.80;;;;;;;;;;7327833;19;20432;-45
2024/02/09 15:31:29;;;;;;;31.80;14.10;;;;;;;;;;7349542;19;20867;-44
2024/02/09 15:33:58;;;;;;;16.37;7.70;;;;;;;;;;7326736;19;20402;-42
2024/02/09 15:36:30;;;;;;;9.17;4.90;;;;;;;;;;7349467;19;20950;-46
2024/02/09 15:38:59;;;;;;;7.07;3.83;;;;;;;;;;7325021;19;20553;-47
2024/02/09 15:41:31;;;;;;;6.27;4.20;;;;;;;;;;7348708;19;20608;-45
2024/02/09 15:44:00;;;;;;;9.00;4.97;;;;;;;;;;7325970;19;20532;-41
2024/02/09 15:46:30;;;;;;;6.60;3.97;;;;;;;;;;7349940;19;20825;-41
2024/02/09 15:48:59;;;;;;;8.90;4.53;;;;;;;;;;7327389;19;20410;-42
2024/02/09 15:51:30;;;;;;;6.30;4.00;;;;;;;;;;7349352;19;20402;-44
2024/02/09 15:54:01;;;;;;;7.67;3.70;;;;;;;;;;7325470;19;20522;-42
2024/02/09 15:56:35;;;;;;;8.23;4.20;;;;;;;;;;7350409;19;20472;-48
2024/02/09 15:59:05;;;;;;;6.73;3.90;;;;;;;;;;7325836;19;20450;-47
2024/02/09 16:01:38;;;;;;;5.13;3.47;;;;;;;;;;7349239;19;20999;-45
2024/02/09 16:04:08;;;;;;;7.30;4.40;;;;;;;;;;7327252;19;20407;-46
2024/02/09 16:06:38;;;;;;;7.23;4.00;;;;;;;;;;7349829;19;20470;-40
2024/02/09 16:09:07;;;;;;;7.30;4.30;;;;;;;;;;7327009;19;20942;-41
2024/02/09 16:11:40;;;;;;;7.60;4.13;;;;;;;;;;7348368;19;20523;-44
2024/02/09 16:14:10;;;;;;;8.00;4.77;;;;;;;;;;7326130;19;20478;-44
2024/02/09 16:16:40;;;;;;;9.17;5.10;;;;;;;;;;7348172;19;20494;-44
2024/02/09 16:19:09;;;;;;;7.77;4.60;;;;;;;;;;7324625;19;20421;-44
2024/02/09 16:21:40;;;;;;;15.67;7.47;;;;;;;;;;7348975;19;20431;-41
2024/02/09 16:24:11;;;;;;;9.70;5.23;;;;;;;;;;7326007;19;20453;-46
2024/02/09 16:26:43;;;;;;;6.93;4.60;;;;;;;;;;7347671;19;20430;-42
2024/02/09 16:29:15;;;;;;;7.20;4.67;;;;;;;;;;7326952;19;20447;-41
2024/02/09 16:31:46;;;;;;;7.50;4.70;;;;;;;;;;7325185;19;20506;-47
2024/02/09 16:34:15;;;;;;;8.23;5.50;;;;;;;;;;7346578;19;20418;-44
2024/02/09 16:36:45;;;;;;;9.40;5.37;;;;;;;;;;7323300;19;20805;-41
2024/02/09 16:39:15;;;;;;;9.27;5.80;;;;;;;;;;7346901;19;20419;-42
2024/02/09 16:41:47;;;;;;;11.60;6.10;;;;;;;;;;7325443;19;20470;-48
2024/02/09 16:44:20;;;;;;;10.10;6.17;;;;;;;;;;7347183;19;20414;-47
2024/02/09 16:46:50;;;;;;;11.27;6.80;;;;;;;;;;7326275;19;20423;-44